sensor_id;sensor_type;location;lat;lon;timestamp;pressure;altitude;pressure_sealevel;temperature;humidity
5500;BME280;2772;42.700;23.304;2023-04-28T00:02:22;95368.47;;;9.23;83.38
5500;BME280;2772;42.700;23.304;2023-04-28T00:04:48;95360.84;;;9.35;86.83
5500;BME280;2772;42.700;23.304;2023-04-28T00:07:16;95367.38;;;9.42;86.15
5500;BME280;2772;42.700;23.304;2023-04-28T00:09:43;95365.53;;;9.24;80.44
5500;BME280;2772;42.700;23.304;2023-04-28T00:12:10;95367.47;;;9.05;76.46
5500;BME280;2772;42.700;23.304;2023-04-28T00:14:36;95367.94;;;9.07;81.32
5500;BME280;2772;42.700;23.304;2023-04-28T00:17:03;95376.59;;;8.62;80.27
5500;BME280;2772;42.700;23.304;2023-04-28T00:19:30;95377.16;;;8.78;81.50
5500;BME280;2772;42.700;23.304;2023-04-28T00:21:56;95364.44;;;8.75;83.96
5500;BME280;2772;42.700;23.304;2023-04-28T00:24:25;95364.16;;;8.76;85.61
5500;BME280;2772;42.700;23.304;2023-04-28T00:26:51;95370.69;;;8.84;86.62
5500;BME280;2772;42.700;23.304;2023-04-28T00:29:18;95376.75;;;8.71;83.97
5500;BME280;2772;42.700;23.304;2023-04-28T00:31:45;95376.88;;;8.79;86.13
5500;BME280;2772;42.700;23.304;2023-04-28T00:34:11;95371.47;;;9.03;89.70
5500;BME280;2772;42.700;23.304;2023-04-28T00:36:39;95369.81;;;9.07;84.42
5500;BME280;2772;42.700;23.304;2023-04-28T00:39:06;95377.28;;;9.05;81.12
5500;BME280;2772;42.700;23.304;2023-04-28T00:41:34;95383.88;;;9.07;85.78
5500;BME280;2772;42.700;23.304;2023-04-28T00:44:01;95381.97;;;8.94;78.98
5500;BME280;2772;42.700;23.304;2023-04-28T00:46:29;95377.06;;;9.01;86.73
5500;BME280;2772;42.700;23.304;2023-04-28T00:48:56;95387.00;;;8.96;87.07
5500;BME280;2772;42.700;23.304;2023-04-28T00:51:23;95381.75;;;8.72;83.08
5500;BME280;2772;42.700;23.304;2023-04-28T00:53:51;95389.66;;;8.77;84.51
5500;BME280;2772;42.700;23.304;2023-04-28T00:56:18;95387.28;;;8.76;84.16
5500;BME280;2772;42.700;23.304;2023-04-28T00:58:47;95393.38;;;8.58;84.10
5500;BME280;2772;42.700;23.304;2023-04-28T01:01:14;95392.50;;;8.62;87.05
5500;BME280;2772;42.700;23.304;2023-04-28T01:03:41;95392.50;;;8.62;88.29
5500;BME280;2772;42.700;23.304;2023-04-28T01:06:08;95392.22;;;8.64;90.54
5500;BME280;2772;42.700;23.304;2023-04-28T01:08:37;95395.59;;;8.51;83.67
5500;BME280;2772;42.700;23.304;2023-04-28T01:11:04;95392.84;;;8.37;81.86
5500;BME280;2772;42.700;23.304;2023-04-28T01:13:31;95403.50;;;8.32;81.97
5500;BME280;2772;42.700;23.304;2023-04-28T01:15:59;95402.97;;;8.12;83.71
5500;BME280;2772;42.700;23.304;2023-04-28T01:18:26;95396.81;;;7.92;84.71
5500;BME280;2772;42.700;23.304;2023-04-28T01:20:53;95395.91;;;7.78;85.75
5500;BME280;2772;42.700;23.304;2023-04-28T01:23:20;95400.06;;;7.84;85.42
5500;BME280;2772;42.700;23.304;2023-04-28T01:25:48;95399.13;;;7.75;85.65
5500;BME280;2772;42.700;23.304;2023-04-28T01:28:15;95407.47;;;7.59;86.81
5500;BME280;2772;42.700;23.304;2023-04-28T01:30:41;95405.22;;;7.47;88.19
5500;BME280;2772;42.700;23.304;2023-04-28T01:33:08;95405.25;;;7.42;88.13
5500;BME280;2772;42.700;23.304;2023-04-28T01:35:35;95407.47;;;7.59;86.75
5500;BME280;2772;42.700;23.304;2023-04-28T01:38:01;95406.03;;;7.71;86.97
5500;BME280;2772;42.700;23.304;2023-04-28T01:40:28;95394.69;;;7.66;85.69
5500;BME280;2772;42.700;23.304;2023-04-28T01:42:56;95401.84;;;7.65;85.99
5500;BME280;2772;42.700;23.304;2023-04-28T01:45:23;95403.53;;;7.56;85.77
5500;BME280;2772;42.700;23.304;2023-04-28T01:47:50;95404.28;;;7.33;87.82
5500;BME280;2772;42.700;23.304;2023-04-28T01:50:16;95413.28;;;7.32;88.40
5500;BME280;2772;42.700;23.304;2023-04-28T01:52:43;95400.13;;;7.22;89.31
5500;BME280;2772;42.700;23.304;2023-04-28T01:55:10;95411.75;;;7.26;88.57
5500;BME280;2772;42.700;23.304;2023-04-28T01:57:36;95399.63;;;7.20;89.44
5500;BME280;2772;42.700;23.304;2023-04-28T02:00:06;95405.00;;;7.10;89.83
5500;BME280;2772;42.700;23.304;2023-04-28T02:02:33;95405.53;;;7.07;89.89
5500;BME280;2772;42.700;23.304;2023-04-28T02:05:01;95413.00;;;7.00;91.05
5500;BME280;2772;42.700;23.304;2023-04-28T02:07:27;95412.06;;;6.86;92.06
5500;BME280;2772;42.700;23.304;2023-04-28T02:09:54;95408.78;;;6.99;92.40
5500;BME280;2772;42.700;23.304;2023-04-28T02:12:21;95414.41;;;6.93;92.39
5500;BME280;2772;42.700;23.304;2023-04-28T02:14:47;95408.84;;;6.89;92.31
5500;BME280;2772;42.700;23.304;2023-04-28T02:17:16;95421.53;;;6.92;92.42
5500;BME280;2772;42.700;23.304;2023-04-28T02:19:43;95426.81;;;6.97;92.84
5500;BME280;2772;42.700;23.304;2023-04-28T02:22:10;95420.38;;;7.08;91.28
5500;BME280;2772;42.700;23.304;2023-04-28T02:24:37;95422.72;;;7.15;91.06
5500;BME280;2772;42.700;23.304;2023-04-28T02:27:04;95415.09;;;7.03;91.75
5500;BME280;2772;42.700;23.304;2023-04-28T02:29:30;95421.47;;;7.02;92.46
5500;BME280;2772;42.700;23.304;2023-04-28T02:31:57;95428.50;;;6.78;93.49
5500;BME280;2772;42.700;23.304;2023-04-28T02:34:25;95424.88;;;6.69;94.44
5500;BME280;2772;42.700;23.304;2023-04-28T02:36:52;95428.75;;;6.82;94.92
5500;BME280;2772;42.700;23.304;2023-04-28T02:39:18;95430.56;;;6.91;94.79
5500;BME280;2772;42.700;23.304;2023-04-28T02:41:49;95440.16;;;6.82;95.28
5500;BME280;2772;42.700;23.304;2023-04-28T02:44:16;95432.22;;;6.77;96.03
5500;BME280;2772;42.700;23.304;2023-04-28T02:46:43;95432.25;;;6.72;95.89
5500;BME280;2772;42.700;23.304;2023-04-28T02:49:10;95437.53;;;6.77;94.70
5500;BME280;2772;42.700;23.304;2023-04-28T02:51:38;95434.75;;;6.54;96.03
5500;BME280;2772;42.700;23.304;2023-04-28T02:54:04;95437.31;;;6.69;95.21
5500;BME280;2772;42.700;23.304;2023-04-28T02:56:31;95439.09;;;6.78;95.08
5500;BME280;2772;42.700;23.304;2023-04-28T02:58:58;95441.44;;;6.85;94.75
5500;BME280;2772;42.700;23.304;2023-04-28T03:01:25;95446.03;;;6.69;95.88
5500;BME280;2772;42.700;23.304;2023-04-28T03:03:52;95446.91;;;6.55;97.86
5500;BME280;2772;42.700;23.304;2023-04-28T03:06:18;95448.69;;;6.69;97.21
5500;BME280;2772;42.700;23.304;2023-04-28T03:08:46;95446.50;;;6.76;96.18
5500;BME280;2772;42.700;23.304;2023-04-28T03:11:13;95450.81;;;6.67;96.46
5500;BME280;2772;42.700;23.304;2023-04-28T03:13:40;95460.38;;;6.58;95.61
5500;BME280;2772;42.700;23.304;2023-04-28T03:16:06;95451.06;;;6.66;95.83
5500;BME280;2772;42.700;23.304;2023-04-28T03:18:33;95455.34;;;6.62;95.01
5500;BME280;2772;42.700;23.304;2023-04-28T03:21:00;95451.44;;;6.49;96.10
5500;BME280;2772;42.700;23.304;2023-04-28T03:23:27;95462.75;;;6.60;95.88
5500;BME280;2772;42.700;23.304;2023-04-28T03:25:55;95463.28;;;6.62;96.20
5500;BME280;2772;42.700;23.304;2023-04-28T03:28:21;95465.41;;;6.55;96.67
5500;BME280;2772;42.700;23.304;2023-04-28T03:30:51;95470.41;;;6.61;95.68
5500;BME280;2772;42.700;23.304;2023-04-28T03:33:18;95475.16;;;6.64;95.55
5500;BME280;2772;42.700;23.304;2023-04-28T03:35:45;95483.34;;;6.73;93.97
5500;BME280;2772;42.700;23.304;2023-04-28T03:38:11;95484.63;;;6.80;92.89
5500;BME280;2772;42.700;23.304;2023-04-28T03:40:39;95488.84;;;6.76;92.77
5500;BME280;2772;42.700;23.304;2023-04-28T03:43:07;95490.19;;;6.79;92.73
5500;BME280;2772;42.700;23.304;2023-04-28T03:45:33;95486.44;;;6.85;91.41
5500;BME280;2772;42.700;23.304;2023-04-28T03:48:00;95504.16;;;6.89;91.78
5500;BME280;2772;42.700;23.304;2023-04-28T03:50:27;95503.91;;;6.86;90.69
5500;BME280;2772;42.700;23.304;2023-04-28T03:52:53;95510.28;;;6.80;91.07
5500;BME280;2772;42.700;23.304;2023-04-28T03:55:20;95500.25;;;6.72;91.99
5500;BME280;2772;42.700;23.304;2023-04-28T03:57:47;95509.81;;;6.73;91.42
5500;BME280;2772;42.700;23.304;2023-04-28T04:00:15;95513.50;;;6.72;92.03
5500;BME280;2772;42.700;23.304;2023-04-28T04:02:42;95517.19;;;6.81;91.32
5500;BME280;2772;42.700;23.304;2023-04-28T04:05:09;95525.31;;;6.94;90.23
5500;BME280;2772;42.700;23.304;2023-04-28T04:07:35;95516.84;;;6.92;91.42
5500;BME280;2772;42.700;23.304;2023-04-28T04:10:02;95520.75;;;7.05;91.23
5500;BME280;2772;42.700;23.304;2023-04-28T04:12:29;95531.00;;;7.16;89.86
5500;BME280;2772;42.700;23.304;2023-04-28T04:14:56;95527.28;;;7.17;89.35
5500;BME280;2772;42.700;23.304;2023-04-28T04:17:24;95523.50;;;7.28;88.97
5500;BME280;2772;42.700;23.304;2023-04-28T04:19:50;95528.00;;;7.28;88.14
5500;BME280;2772;42.700;23.304;2023-04-28T04:22:17;95538.56;;;7.38;87.41
5500;BME280;2772;42.700;23.304;2023-04-28T04:24:44;95540.94;;;7.39;85.58
5500;BME280;2772;42.700;23.304;2023-04-28T04:27:12;95536.34;;;7.50;84.01
5500;BME280;2772;42.700;23.304;2023-04-28T04:29:39;95544.44;;;7.63;82.45
5500;BME280;2772;42.700;23.304;2023-04-28T04:32:06;95540.63;;;7.79;81.66
5500;BME280;2772;42.700;23.304;2023-04-28T04:34:34;95540.31;;;7.86;80.55
5500;BME280;2772;42.700;23.304;2023-04-28T04:37:01;95545.06;;;7.89;78.84
5500;BME280;2772;42.700;23.304;2023-04-28T04:39:28;95552.41;;;7.97;79.84
5500;BME280;2772;42.700;23.304;2023-04-28T04:41:54;95544.31;;;7.83;80.00
5500;BME280;2772;42.700;23.304;2023-04-28T04:44:22;95555.19;;;7.82;79.76
5500;BME280;2772;42.700;23.304;2023-04-28T04:46:48;95554.53;;;7.95;80.24
5500;BME280;2772;42.700;23.304;2023-04-28T04:49:15;95557.41;;;8.03;79.17
5500;BME280;2772;42.700;23.304;2023-04-28T04:51:43;95556.31;;;8.04;79.27
5500;BME280;2772;42.700;23.304;2023-04-28T04:54:10;95560.97;;;8.23;78.88
5500;BME280;2772;42.700;23.304;2023-04-28T04:56:37;95561.94;;;8.32;78.91
5500;BME280;2772;42.700;23.304;2023-04-28T04:59:04;95560.97;;;8.23;78.16
5500;BME280;2772;42.700;23.304;2023-04-28T05:01:30;95567.97;;;8.37;78.61
5500;BME280;2772;42.700;23.304;2023-04-28T05:03:57;95562.91;;;8.41;77.10
5500;BME280;2772;42.700;23.304;2023-04-28T05:06:24;95570.78;;;8.51;76.73
5500;BME280;2772;42.700;23.304;2023-04-28T05:08:52;95575.44;;;8.59;75.43
5500;BME280;2772;42.700;23.304;2023-04-28T05:11:20;95573.31;;;8.61;75.02
5500;BME280;2772;42.700;23.304;2023-04-28T05:13:47;95573.69;;;8.73;73.64
5500;BME280;2772;42.700;23.304;2023-04-28T05:16:14;95567.94;;;8.66;75.12
5500;BME280;2772;42.700;23.304;2023-04-28T05:18:42;95571.22;;;8.81;74.79
5500;BME280;2772;42.700;23.304;2023-04-28T05:21:09;95565.34;;;8.84;74.85
5500;BME280;2772;42.700;23.304;2023-04-28T05:23:36;95568.09;;;8.98;74.70
5500;BME280;2772;42.700;23.304;2023-04-28T07:17:18;95560.78;;;11.42;62.70
5500;BME280;2772;42.700;23.304;2023-04-28T07:19:45;95565.91;;;11.52;58.80
5500;BME280;2772;42.700;23.304;2023-04-28T07:22:14;95555.28;;;11.60;58.79
5500;BME280;2772;42.700;23.304;2023-04-28T07:24:41;95553.94;;;11.49;56.52
5500;BME280;2772;42.700;23.304;2023-04-28T07:27:07;95557.50;;;11.45;58.84
5500;BME280;2772;42.700;23.304;2023-04-28T07:29:34;95548.81;;;11.66;60.62
5500;BME280;2772;42.700;23.304;2023-04-28T07:32:02;95550.63;;;11.79;61.46
5500;BME280;2772;42.700;23.304;2023-04-28T07:34:31;95556.44;;;11.81;57.76
5500;BME280;2772;42.700;23.304;2023-04-28T07:36:58;95567.66;;;11.56;53.46
5500;BME280;2772;42.700;23.304;2023-04-28T07:39:24;95549.47;;;11.58;54.06
5500;BME280;2772;42.700;23.304;2023-04-28T07:41:51;95548.97;;;11.70;59.55
5500;BME280;2772;42.700;23.304;2023-04-28T07:44:18;95555.28;;;11.74;56.36
5500;BME280;2772;42.700;23.304;2023-04-28T07:46:45;95552.00;;;11.77;55.70
5500;BME280;2772;42.700;23.304;2023-04-28T07:49:11;95557.00;;;11.92;56.85
5500;BME280;2772;42.700;23.304;2023-04-28T07:51:39;95546.44;;;11.87;53.80
5500;BME280;2772;42.700;23.304;2023-04-28T07:54:06;95547.75;;;11.98;53.38
5500;BME280;2772;42.700;23.304;2023-04-28T07:56:33;95545.09;;;11.98;52.20
5500;BME280;2772;42.700;23.304;2023-04-28T07:59:00;95545.59;;;12.00;51.07
5500;BME280;2772;42.700;23.304;2023-04-28T08:01:27;95539.59;;;11.94;52.23
5500;BME280;2772;42.700;23.304;2023-04-28T08:03:54;95552.63;;;11.96;52.38
5500;BME280;2772;42.700;23.304;2023-04-28T08:06:20;95545.28;;;12.01;51.67
5500;BME280;2772;42.700;23.304;2023-04-28T08:08:48;95543.88;;;12.04;51.61
5500;BME280;2772;42.700;23.304;2023-04-28T08:11:15;95536.59;;;12.18;51.92
5500;BME280;2772;42.700;23.304;2023-04-28T08:13:42;95550.63;;;12.23;49.99
5500;BME280;2772;42.700;23.304;2023-04-28T08:16:08;95546.00;;;12.15;51.46
5500;BME280;2772;42.700;23.304;2023-04-28T08:18:35;95556.06;;;12.18;49.71
5500;BME280;2772;42.700;23.304;2023-04-28T08:21:02;95548.97;;;12.14;51.24
5500;BME280;2772;42.700;23.304;2023-04-28T08:23:29;95546.84;;;12.24;50.12
5500;BME280;2772;42.700;23.304;2023-04-28T08:25:57;95552.56;;;12.31;49.82
5500;BME280;2772;42.700;23.304;2023-04-28T08:28:24;95542.28;;;12.55;54.48
5500;BME280;2772;42.700;23.304;2023-04-28T08:30:51;95543.59;;;12.66;49.52
5500;BME280;2772;42.700;23.304;2023-04-28T08:33:19;95538.56;;;12.65;49.00
5500;BME280;2772;42.700;23.304;2023-04-28T08:35:48;95541.59;;;12.72;47.82
5500;BME280;2772;42.700;23.304;2023-04-28T08:38:14;95536.88;;;12.69;48.05
5500;BME280;2772;42.700;23.304;2023-04-28T08:40:42;95537.19;;;12.67;47.59
5500;BME280;2772;42.700;23.304;2023-04-28T08:43:10;95534.34;;;12.72;47.43
5500;BME280;2772;42.700;23.304;2023-04-28T08:45:40;95537.50;;;12.74;48.43
5500;BME280;2772;42.700;23.304;2023-04-28T08:48:16;95526.19;;;12.77;51.04
5500;BME280;2772;42.700;23.304;2023-04-28T08:50:48;95531.28;;;12.88;49.06
5500;BME280;2772;42.700;23.304;2023-04-28T08:53:20;95523.56;;;12.86;49.97
5500;BME280;2772;42.700;23.304;2023-04-28T08:55:49;95522.34;;;13.01;49.35
5500;BME280;2772;42.700;23.304;2023-04-28T08:58:18;95526.19;;;13.08;51.14
5500;BME280;2772;42.700;23.304;2023-04-28T09:00:45;95526.88;;;12.92;46.42
5500;BME280;2772;42.700;23.304;2023-04-28T09:03:11;95523.63;;;13.03;47.41
5500;BME280;2772;42.700;23.304;2023-04-28T09:05:39;95514.22;;;13.14;47.06
5500;BME280;2772;42.700;23.304;2023-04-28T09:08:05;95513.88;;;13.07;45.90
5500;BME280;2772;42.700;23.304;2023-04-28T09:10:32;95509.16;;;13.04;46.65
5500;BME280;2772;42.700;23.304;2023-04-28T09:12:59;95508.69;;;13.02;46.64
5500;BME280;2772;42.700;23.304;2023-04-28T09:15:29;95502.66;;;12.97;46.47
5500;BME280;2772;42.700;23.304;2023-04-28T09:17:56;95493.75;;;13.01;46.67
5500;BME280;2772;42.700;23.304;2023-04-28T09:20:24;95507.53;;;12.86;46.11
5500;BME280;2772;42.700;23.304;2023-04-28T09:22:52;95498.84;;;12.80;46.08
5500;BME280;2772;42.700;23.304;2023-04-28T09:25:20;95501.41;;;12.94;46.29
5500;BME280;2772;42.700;23.304;2023-04-28T09:27:48;95490.56;;;12.99;47.15
5500;BME280;2772;42.700;23.304;2023-04-28T09:30:15;95481.50;;;13.00;46.42
5500;BME280;2772;42.700;23.304;2023-04-28T09:32:43;95489.06;;;13.07;47.61
5500;BME280;2772;42.700;23.304;2023-04-28T09:35:10;95490.16;;;13.14;46.82
5500;BME280;2772;42.700;23.304;2023-04-28T09:37:36;95487.19;;;13.16;45.09
5500;BME280;2772;42.700;23.304;2023-04-28T09:40:05;95486.84;;;13.17;44.98
5500;BME280;2772;42.700;23.304;2023-04-28T09:42:34;95477.75;;;13.27;46.62
5500;BME280;2772;42.700;23.304;2023-04-28T09:45:02;95466.88;;;13.32;45.81
5500;BME280;2772;42.700;23.304;2023-04-28T09:47:29;95472.06;;;13.37;45.36
5500;BME280;2772;42.700;23.304;2023-04-28T09:50:00;95464.06;;;13.28;44.75
5500;BME280;2772;42.700;23.304;2023-04-28T09:52:27;95469.25;;;13.33;44.72
5500;BME280;2772;42.700;23.304;2023-04-28T09:54:55;95460.28;;;13.38;44.51
5500;BME280;2772;42.700;23.304;2023-04-28T09:57:23;95465.63;;;13.38;44.07
5500;BME280;2772;42.700;23.304;2023-04-28T09:59:51;95458.69;;;13.37;43.53
5500;BME280;2772;42.700;23.304;2023-04-28T10:02:19;95441.69;;;13.58;47.65
5500;BME280;2772;42.700;23.304;2023-04-28T10:04:48;95442.94;;;13.78;46.22
5500;BME280;2772;42.700;23.304;2023-04-28T10:07:17;95429.56;;;13.78;45.09
5500;BME280;2772;42.700;23.304;2023-04-28T10:09:45;95442.09;;;13.94;46.05
5500;BME280;2772;42.700;23.304;2023-04-28T10:12:14;95435.19;;;13.93;44.54
5500;BME280;2772;42.700;23.304;2023-04-28T10:14:41;95438.31;;;14.04;45.18
5500;BME280;2772;42.700;23.304;2023-04-28T10:17:09;95432.28;;;14.15;43.03
5500;BME280;2772;42.700;23.304;2023-04-28T10:19:36;95440.34;;;14.07;44.34
5500;BME280;2772;42.700;23.304;2023-04-28T10:22:18;95434.84;;;14.03;42.01
5500;BME280;2772;42.700;23.304;2023-04-28T10:25:07;95447.78;;;14.01;41.78
5500;BME280;2772;42.700;23.304;2023-04-28T10:27:39;95445.13;;;13.84;41.68
5500;BME280;2772;42.700;23.304;2023-04-28T10:30:11;95433.94;;;13.82;41.68
5500;BME280;2772;42.700;23.304;2023-04-28T10:32:38;95429.06;;;13.84;41.87
5500;BME280;2772;42.700;23.304;2023-04-28T10:35:39;95431.41;;;13.94;42.28
5500;BME280;2772;42.700;23.304;2023-04-28T10:38:10;95431.06;;;13.96;41.29
5500;BME280;2772;42.700;23.304;2023-04-28T10:40:38;95419.91;;;13.94;41.51
5500;BME280;2772;42.700;23.304;2023-04-28T10:43:06;95423.84;;;13.96;41.67
5500;BME280;2772;42.700;23.304;2023-04-28T10:45:58;95416.88;;;14.12;43.63
5500;BME280;2772;42.700;23.304;2023-04-28T10:48:52;95396.69;;;14.15;40.92
5500;BME280;2772;42.700;23.304;2023-04-28T10:51:31;95398.06;;;14.21;40.46
5500;BME280;2772;42.700;23.304;2023-04-28T10:54:16;95404.09;;;14.26;40.54
5500;BME280;2772;42.700;23.304;2023-04-28T10:57:14;95391.28;;;14.32;40.42
5500;BME280;2772;42.700;23.304;2023-04-28T10:59:41;95403.31;;;14.17;40.12
5500;BME280;2772;42.700;23.304;2023-04-28T11:02:36;95395.72;;;14.19;39.82
5500;BME280;2772;42.700;23.304;2023-04-28T11:05:17;95393.19;;;14.23;40.77
5500;BME280;2772;42.700;23.304;2023-04-28T11:11:12;95380.72;;;14.27;40.85
5500;BME280;2772;42.700;23.304;2023-04-28T11:13:39;95377.38;;;14.39;40.46
5500;BME280;2772;42.700;23.304;2023-04-28T11:16:06;95371.66;;;14.49;41.40
5500;BME280;2772;42.700;23.304;2023-04-28T11:18:47;95378.59;;;14.50;39.76
5500;BME280;2772;42.700;23.304;2023-04-28T11:21:14;95366.84;;;14.63;41.14
5500;BME280;2772;42.700;23.304;2023-04-28T11:23:42;95375.63;;;14.72;39.46
5500;BME280;2772;42.700;23.304;2023-04-28T11:26:09;95367.28;;;14.65;39.19
5500;BME280;2772;42.700;23.304;2023-04-28T11:28:46;95368.03;;;14.74;39.49
5500;BME280;2772;42.700;23.304;2023-04-28T11:31:15;95365.81;;;14.76;39.79
5500;BME280;2772;42.700;23.304;2023-04-28T11:33:45;95373.91;;;14.67;40.55
5500;BME280;2772;42.700;23.304;2023-04-28T11:36:26;95356.38;;;14.70;40.40
5500;BME280;2772;42.700;23.304;2023-04-28T11:38:53;95355.88;;;14.76;40.25
5500;BME280;2772;42.700;23.304;2023-04-28T11:41:21;95353.13;;;14.85;41.01
5500;BME280;2772;42.700;23.304;2023-04-28T11:43:49;95348.16;;;14.95;40.86
5500;BME280;2772;42.700;23.304;2023-04-28T11:46:17;95350.53;;;14.97;40.00
5500;BME280;2772;42.700;23.304;2023-04-28T11:48:45;95345.28;;;14.80;40.43
5500;BME280;2772;42.700;23.304;2023-04-28T11:51:29;95342.72;;;14.83;41.58
5500;BME280;2772;42.700;23.304;2023-04-28T11:53:57;95336.50;;;14.91;41.39
5500;BME280;2772;42.700;23.304;2023-04-28T11:56:25;95340.38;;;15.02;41.52
5500;BME280;2772;42.700;23.304;2023-04-28T11:59:04;95322.28;;;15.11;41.82
5500;BME280;2772;42.700;23.304;2023-04-28T12:01:32;95331.84;;;15.21;41.82
5500;BME280;2772;42.700;23.304;2023-04-28T12:04:02;95329.28;;;15.24;41.06
5500;BME280;2772;42.700;23.304;2023-04-28T12:06:29;95329.56;;;15.31;41.00
5500;BME280;2772;42.700;23.304;2023-04-28T12:08:55;95324.44;;;15.38;40.90
5500;BME280;2772;42.700;23.304;2023-04-28T12:11:27;95329.63;;;15.43;40.90
5500;BME280;2772;42.700;23.304;2023-04-28T12:14:05;95319.44;;;15.49;40.94
5500;BME280;2772;42.700;23.304;2023-04-28T12:16:40;95308.03;;;15.52;40.28
5500;BME280;2772;42.700;23.304;2023-04-28T12:19:10;95315.28;;;15.39;38.85
5500;BME280;2772;42.700;23.304;2023-04-28T12:21:38;95307.34;;;15.43;40.25
5500;BME280;2772;42.700;23.304;2023-04-28T12:24:15;95315.34;;;15.51;40.55
5500;BME280;2772;42.700;23.304;2023-04-28T12:26:42;95298.56;;;15.54;41.04
5500;BME280;2772;42.700;23.304;2023-04-28T12:29:33;95290.97;;;15.56;40.18
5500;BME280;2772;42.700;23.304;2023-04-28T12:32:01;95313.56;;;15.67;40.19
5500;BME280;2772;42.700;23.304;2023-04-28T12:34:27;95292.00;;;15.76;40.02
5500;BME280;2772;42.700;23.304;2023-04-28T12:36:55;95294.75;;;15.67;39.45
5500;BME280;2772;42.700;23.304;2023-04-28T12:39:22;95289.38;;;15.67;39.57
5500;BME280;2772;42.700;23.304;2023-04-28T12:41:49;95288.63;;;15.67;39.77
5500;BME280;2772;42.700;23.304;2023-04-28T12:44:17;95275.31;;;15.70;40.46
5500;BME280;2772;42.700;23.304;2023-04-28T12:46:43;95289.50;;;15.71;39.95
5500;BME280;2772;42.700;23.304;2023-04-28T12:49:10;95279.91;;;15.70;39.65
5500;BME280;2772;42.700;23.304;2023-04-28T12:51:39;95276.28;;;15.66;39.12
5500;BME280;2772;42.700;23.304;2023-04-28T12:54:06;95279.91;;;15.70;39.39
5500;BME280;2772;42.700;23.304;2023-04-28T12:56:32;95273.41;;;15.71;39.50
5500;BME280;2772;42.700;23.304;2023-04-28T12:58:59;95263.00;;;15.81;39.61
5500;BME280;2772;42.700;23.304;2023-04-28T13:01:28;95263.13;;;15.85;39.77
5500;BME280;2772;42.700;23.304;2023-04-28T13:03:55;95258.00;;;15.92;39.69
5500;BME280;2772;42.700;23.304;2023-04-28T13:06:22;95258.41;;;15.94;39.69
5500;BME280;2772;42.700;23.304;2023-04-28T13:08:48;95261.56;;;16.08;39.70
5500;BME280;2772;42.700;23.304;2023-04-28T13:11:15;95256.97;;;16.09;39.24
5500;BME280;2772;42.700;23.304;2023-04-28T13:13:42;95246.13;;;16.17;39.86
5500;BME280;2772;42.700;23.304;2023-04-28T13:16:09;95252.16;;;16.26;39.84
5500;BME280;2772;42.700;23.304;2023-04-28T13:18:37;95246.06;;;16.41;40.52
5500;BME280;2772;42.700;23.304;2023-04-28T13:21:04;95245.31;;;16.41;39.72
5500;BME280;2772;42.700;23.304;2023-04-28T13:23:31;95248.31;;;16.39;40.59
5500;BME280;2772;42.700;23.304;2023-04-28T13:25:58;95248.44;;;16.31;39.50
5500;BME280;2772;42.700;23.304;2023-04-28T13:28:25;95256.59;;;16.22;39.16
5500;BME280;2772;42.700;23.304;2023-04-28T13:30:53;95254.16;;;16.29;39.89
5500;BME280;2772;42.700;23.304;2023-04-28T13:33:20;95249.22;;;16.31;39.39
5500;BME280;2772;42.700;23.304;2023-04-28T13:35:48;95246.28;;;16.36;39.30
5500;BME280;2772;42.700;23.304;2023-04-28T13:38:15;95241.94;;;16.44;40.04
5500;BME280;2772;42.700;23.304;2023-04-28T13:40:43;95240.38;;;16.55;39.54
5500;BME280;2772;42.700;23.304;2023-04-28T13:43:09;95237.00;;;16.58;38.81
5500;BME280;2772;42.700;23.304;2023-04-28T13:45:36;95247.59;;;16.66;38.78
5500;BME280;2772;42.700;23.304;2023-04-28T13:48:03;95227.06;;;16.74;39.48
5500;BME280;2772;42.700;23.304;2023-04-28T13:50:30;95224.59;;;16.81;38.57
5500;BME280;2772;42.700;23.304;2023-04-28T13:52:58;95235.34;;;16.81;38.39
5500;BME280;2772;42.700;23.304;2023-04-28T13:55:25;95215.50;;;16.85;39.18
5500;BME280;2772;42.700;23.304;2023-04-28T13:57:52;95226.88;;;16.94;38.14
5500;BME280;2772;42.700;23.304;2023-04-28T14:00:19;95222.91;;;17.04;38.84
5500;BME280;2772;42.700;23.304;2023-04-28T14:02:46;95219.00;;;17.01;38.36
5500;BME280;2772;42.700;23.304;2023-04-28T14:05:14;95212.41;;;16.99;37.73
5500;BME280;2772;42.700;23.304;2023-04-28T14:07:41;95211.88;;;16.93;38.34
5500;BME280;2772;42.700;23.304;2023-04-28T14:10:09;95211.00;;;17.05;39.30
5500;BME280;2772;42.700;23.304;2023-04-28T14:12:36;95214.94;;;17.07;38.59
5500;BME280;2772;42.700;23.304;2023-04-28T14:15:04;95210.72;;;17.22;38.76
5500;BME280;2772;42.700;23.304;2023-04-28T14:17:31;95218.47;;;17.23;38.16
5500;BME280;2772;42.700;23.304;2023-04-28T14:19:59;95210.63;;;17.18;37.50
5500;BME280;2772;42.700;23.304;2023-04-28T14:22:25;95217.31;;;17.24;38.28
5500;BME280;2772;42.700;23.304;2023-04-28T14:24:52;95206.66;;;17.28;38.12
5500;BME280;2772;42.700;23.304;2023-04-28T14:27:21;95216.28;;;17.29;37.21
5500;BME280;2772;42.700;23.304;2023-04-28T14:29:48;95206.13;;;17.38;38.08
5500;BME280;2772;42.700;23.304;2023-04-28T14:32:15;95196.75;;;17.32;37.30
5500;BME280;2772;42.700;23.304;2023-04-28T14:34:45;95202.13;;;17.32;37.00
5500;BME280;2772;42.700;23.304;2023-04-28T14:37:12;95203.84;;;17.24;37.23
5500;BME280;2772;42.700;23.304;2023-04-28T14:39:39;95200.63;;;17.19;36.75
5500;BME280;2772;42.700;23.304;2023-04-28T14:42:06;95193.16;;;17.12;37.29
5500;BME280;2772;42.700;23.304;2023-04-28T14:44:34;95187.94;;;17.19;38.49
5500;BME280;2772;42.700;23.304;2023-04-28T14:47:01;95182.56;;;17.19;37.70
5500;BME280;2772;42.700;23.304;2023-04-28T14:49:28;95187.25;;;17.22;36.52
5500;BME280;2772;42.700;23.304;2023-04-28T14:51:55;95182.41;;;17.12;37.58
5500;BME280;2772;42.700;23.304;2023-04-28T14:54:24;95185.44;;;17.11;36.50
5500;BME280;2772;42.700;23.304;2023-04-28T14:56:50;95207.03;;;17.14;37.38
5500;BME280;2772;42.700;23.304;2023-04-28T14:59:17;95189.75;;;17.00;36.92
5500;BME280;2772;42.700;23.304;2023-04-28T15:01:46;95207.19;;;16.90;37.10
5500;BME280;2772;42.700;23.304;2023-04-28T15:04:14;95192.06;;;16.86;37.53
5500;BME280;2772;42.700;23.304;2023-04-28T15:06:41;95196.84;;;16.92;37.09
5500;BME280;2772;42.700;23.304;2023-04-28T15:09:08;95193.28;;;16.88;37.26
5500;BME280;2772;42.700;23.304;2023-04-28T15:11:35;95176.44;;;16.91;37.14
5500;BME280;2772;42.700;23.304;2023-04-28T15:14:01;95184.28;;;16.96;38.18
5500;BME280;2772;42.700;23.304;2023-04-28T15:16:28;95185.81;;;16.97;37.10